Time;durP1;ratioP1;P1;durP2;ratioP2;P2;SDS_P1;SDS_P2;PMS_P1;PMS_P2;Temp;Humidity;BMP_temperature;BMP_pressure;BME280_temperature;BME280_humidity;BME280_pressure;Samples;Min_cycle;Max_cycle;Signal;HPM_P1;HPM_P2
2023/01/26 00:00:27;;;;;;;50.47;21.30;;;-0.30;99.90;;;;;;5069345;28;20047;-67
2023/01/26 00:02:53;;;;;;;49.38;21.42;;;-0.20;99.90;;;;;;5068325;28;20036;-64
2023/01/26 00:05:18;;;;;;;52.45;21.58;;;-0.30;99.90;;;;;;5049781;28;20059;-66
2023/01/26 00:07:44;;;;;;;54.30;23.20;;;-0.30;99.90;;;;;;5069700;28;20547;-64
2023/01/26 00:10:11;;;;;;;52.63;21.73;;;-0.30;99.90;;;;;;5068492;28;20402;-63
2023/01/26 00:12:37;;;;;;;49.88;21.08;;;-0.20;99.90;;;;;;5081799;28;20407;-65
2023/01/26 00:15:03;;;;;;;49.55;21.40;;;-0.20;99.90;;;;;;5069490;28;20041;-63
2023/01/26 00:17:29;;;;;;;51.70;21.98;;;-0.20;99.90;;;;;;5066492;28;20044;-62
2023/01/26 00:19:56;;;;;;;57.08;23.50;;;-0.10;99.90;;;;;;5068018;28;20083;-64
2023/01/26 00:22:25;;;;;;;52.45;22.63;;;-0.10;99.90;;;;;;5066050;28;20047;-62
2023/01/26 00:24:50;;;;;;;54.60;22.08;;;-0.10;99.90;;;;;;5082018;28;20060;-66
2023/01/26 00:27:16;;;;;;;51.53;22.05;;;-0.10;99.90;;;;;;5065951;28;20488;-65
2023/01/26 00:29:42;;;;;;;49.70;20.83;;;-0.10;99.90;;;;;;5068992;28;20039;-64
2023/01/26 00:32:07;;;;;;;53.60;22.67;;;-0.10;99.90;;;;;;5068912;28;20123;-65
2023/01/26 00:34:33;;;;;;;55.25;21.85;;;-0.10;99.90;;;;;;5068527;28;20043;-65
2023/01/26 00:36:59;;;;;;;54.42;22.25;;;-0.10;99.90;;;;;;5068768;28;20124;-64
2023/01/26 00:39:24;;;;;;;53.67;22.80;;;-0.10;99.90;;;;;;5068078;28;20060;-66
2023/01/26 00:42:05;;;;;;;53.67;21.75;;;-0.10;99.90;;;;;;5069078;28;20032;-65
2023/01/26 00:44:31;;;;;;;49.70;22.75;;;-0.10;99.90;;;;;;5067575;28;20052;-65
2023/01/26 00:46:57;;;;;;;50.50;20.75;;;-0.10;99.90;;;;;;5068067;28;20071;-63
2023/01/26 00:49:23;;;;;;;52.55;21.85;;;-0.10;99.90;;;;;;5068975;28;20064;-63
2023/01/26 00:51:48;;;;;;;51.42;21.75;;;-0.10;99.90;;;;;;5069805;28;20106;-64
2023/01/26 00:54:14;;;;;;;54.17;23.17;;;0.00;99.90;;;;;;5067621;28;20036;-66
2023/01/26 00:56:40;;;;;;;49.47;21.92;;;0.00;99.90;;;;;;5068224;28;20510;-64
2023/01/26 00:59:05;;;;;;;53.95;22.45;;;-0.10;99.90;;;;;;5068914;28;20041;-65
2023/01/26 01:01:31;;;;;;;50.67;20.23;;;-0.10;99.90;;;;;;5068436;28;20044;-63
2023/01/26 01:03:57;;;;;;;52.72;22.33;;;-0.10;99.90;;;;;;5068188;28;20055;-65
2023/01/26 01:06:22;;;;;;;49.10;22.10;;;-0.10;99.90;;;;;;5068465;28;20045;-66
2023/01/26 01:08:48;;;;;;;50.00;20.85;;;-0.10;99.90;;;;;;5068337;28;20036;-62
2023/01/26 01:11:14;;;;;;;50.80;21.30;;;-0.10;99.90;;;;;;5068265;28;20617;-64
2023/01/26 01:13:39;;;;;;;49.10;21.88;;;-0.10;99.90;;;;;;5068075;28;20036;-65
2023/01/26 01:16:07;;;;;;;49.92;20.75;;;-0.10;99.90;;;;;;5067218;28;20533;-64
2023/01/26 01:18:33;;;;;;;51.25;21.65;;;-0.10;99.90;;;;;;5069439;28;20044;-66
2023/01/26 01:20:58;;;;;;;51.80;21.75;;;-0.10;99.90;;;;;;5065997;28;20051;-64
2023/01/26 01:23:28;;;;;;;49.22;21.83;;;0.00;99.90;;;;;;5067940;28;20048;-65
2023/01/26 01:25:58;;;;;;;54.20;21.20;;;0.00;99.90;;;;;;5067036;28;20053;-64
2023/01/26 01:28:24;;;;;;;50.42;21.45;;;0.00;99.90;;;;;;5066297;28;20051;-63
2023/01/26 01:30:50;;;;;;;48.50;21.55;;;0.00;99.90;;;;;;5067830;28;20410;-65
2023/01/26 01:33:15;;;;;;;52.08;21.80;;;0.10;99.90;;;;;;5067350;28;20114;-64
2023/01/26 01:35:41;;;;;;;48.50;20.85;;;0.10;99.90;;;;;;5067312;28;20032;-64
2023/01/26 01:38:06;;;;;;;48.88;20.88;;;0.10;99.90;;;;;;5063430;28;20178;-65
2023/01/26 01:40:32;;;;;;;46.58;19.80;;;0.10;99.90;;;;;;5049371;28;20170;-62
2023/01/26 01:42:58;;;;;;;46.78;19.63;;;0.10;99.90;;;;;;5067304;28;20036;-64
2023/01/26 01:45:38;;;;;;;47.25;21.00;;;0.20;99.90;;;;;;5063994;28;20398;-64
2023/01/26 01:48:09;;;;;;;46.88;20.08;;;0.20;99.90;;;;;;5082393;28;20046;-66
2023/01/26 01:50:38;;;;;;;45.03;19.50;;;0.20;99.90;;;;;;5066234;28;20056;-67
2023/01/26 01:53:07;;;;;;;42.95;18.83;;;0.20;99.90;;;;;;5066654;28;20503;-64
2023/01/26 01:55:33;;;;;;;47.95;20.20;;;0.20;99.90;;;;;;5067695;28;20430;-62
2023/01/26 01:58:01;;;;;;;46.92;19.75;;;0.10;99.90;;;;;;5066586;28;20044;-63
2023/01/26 02:00:28;;;;;;;47.20;20.27;;;0.10;99.90;;;;;;5066615;28;20037;-63
2023/01/26 02:03:20;;;;;;;44.50;19.20;;;0.10;99.90;;;;;;5067185;28;20119;-62
2023/01/26 02:06:20;;;;;;;52.17;21.48;;;0.10;99.90;;;;;;5061574;28;20084;-66
2023/01/26 02:08:51;;;;;;;47.75;19.73;;;0.10;99.90;;;;;;5079139;28;20152;-62
2023/01/26 02:11:23;;;;;;;49.47;19.42;;;0.10;99.90;;;;;;5083054;28;20055;-63
2023/01/26 02:13:50;;;;;;;51.03;20.10;;;0.10;99.90;;;;;;5064917;28;20056;-63
2023/01/26 02:16:17;;;;;;;48.17;19.50;;;0.10;99.90;;;;;;5064524;28;20782;-65
2023/01/26 02:18:44;;;;;;;49.30;18.80;;;0.10;99.90;;;;;;5066822;28;20487;-64
2023/01/26 02:21:15;;;;;;;50.78;19.70;;;0.10;99.90;;;;;;5065811;28;20049;-62
2023/01/26 02:23:46;;;;;;;49.53;18.42;;;0.20;99.90;;;;;;5066949;28;20518;-66
2023/01/26 02:26:26;;;;;;;51.08;19.75;;;0.20;99.90;;;;;;5065859;28;20055;-64
2023/01/26 02:28:52;;;;;;;48.53;18.70;;;0.20;99.90;;;;;;5068862;28;20065;-64
2023/01/26 02:31:18;;;;;;;52.85;19.15;;;0.20;99.90;;;;;;5066857;28;20075;-64
2023/01/26 02:33:44;;;;;;;49.15;18.73;;;0.20;99.90;;;;;;5051044;28;20127;-64
2023/01/26 02:36:17;;;;;;;47.95;18.65;;;0.20;99.90;;;;;;5068236;28;20065;-63
2023/01/26 02:38:49;;;;;;;47.35;19.17;;;0.20;99.90;;;;;;5065313;28;20468;-65
2023/01/26 02:42:37;;;;;;;43.72;17.15;;;0.20;99.90;;;;;;5054091;28;20434;-64
2023/01/26 02:44:03;;;;;;;44.53;17.65;;;0.30;99.90;;;;;;5068737;28;20128;-64
2023/01/26 02:46:29;;;;;;;44.30;17.83;;;0.20;99.90;;;;;;5085971;28;20064;-65
2023/01/26 02:51:39;;;;;;;42.60;16.77;;;0.20;99.90;;;;;;5068794;28;20102;-66
2023/01/26 02:54:05;;;;;;;48.15;19.13;;;0.20;99.90;;;;;;5070059;28;20424;-63
2023/01/26 02:56:30;;;;;;;45.17;18.75;;;0.20;99.90;;;;;;5069620;28;20032;-65
2023/01/26 02:58:56;;;;;;;41.58;16.65;;;0.20;99.90;;;;;;5069058;28;20506;-62
2023/01/26 03:01:22;;;;;;;45.75;18.65;;;0.20;99.90;;;;;;5070742;28;20040;-67
2023/01/26 03:03:47;;;;;;;48.20;18.92;;;0.20;99.90;;;;;;5069107;28;20046;-65
2023/01/26 03:06:14;;;;;;;41.47;17.08;;;0.20;99.90;;;;;;5072045;28;20479;-64
2023/01/26 03:08:39;;;;;;;42.00;16.48;;;0.20;99.90;;;;;;5070437;28;20060;-62
2023/01/26 03:11:06;;;;;;;47.47;19.33;;;0.20;99.90;;;;;;5070702;28;20044;-62
2023/01/26 03:13:32;;;;;;;44.88;17.73;;;0.20;99.90;;;;;;5069717;28;20082;-65
2023/01/26 03:16:05;;;;;;;49.40;18.88;;;0.20;99.90;;;;;;5069522;28;20071;-63
2023/01/26 03:29:44;;;;;;;53.83;19.13;;;0.30;99.90;;;;;;5010994;28;20103;-66
2023/01/26 03:32:10;;;;;;;49.67;18.73;;;0.30;99.90;;;;;;5012702;28;20041;-64
2023/01/26 03:34:36;;;;;;;47.30;18.30;;;0.30;99.90;;;;;;5012019;28;20044;-66
2023/01/26 03:37:02;;;;;;;50.80;18.55;;;0.20;99.90;;;;;;5012002;28;20037;-65
2023/01/26 03:56:17;;;;;;;44.80;17.30;;;0.30;99.90;;;;;;5030375;28;20048;-66
2023/01/26 03:59:06;;;;;;;49.40;19.00;;;0.30;99.90;;;;;;5028766;28;20034;-64
2023/01/26 04:01:33;;;;;;;46.38;18.17;;;0.30;99.90;;;;;;5014590;28;20478;-65
2023/01/26 04:09:30;;;;;;;46.05;17.10;;;0.30;99.90;;;;;;5068200;28;20051;-64
2023/01/26 04:11:56;;;;;;;41.47;17.98;;;0.30;99.90;;;;;;5070778;28;20056;-65
2023/01/26 04:22:42;;;;;;;47.40;18.00;;;0.40;99.90;;;;;;5068673;28;20142;-64
2023/01/26 04:25:09;;;;;;;44.47;17.60;;;0.40;99.90;;;;;;5067879;28;20457;-66
2023/01/26 04:27:35;;;;;;;46.95;19.08;;;0.40;99.90;;;;;;5068112;28;20056;-66
2023/01/26 04:30:02;;;;;;;43.20;17.67;;;0.40;99.90;;;;;;5066303;28;20055;-67
2023/01/26 04:32:28;;;;;;;47.00;17.38;;;0.40;99.90;;;;;;5069134;28;20049;-63
2023/01/26 04:34:54;;;;;;;44.03;18.05;;;0.40;99.90;;;;;;5069149;28;20063;-66
2023/01/26 04:37:20;;;;;;;49.72;18.50;;;0.40;99.90;;;;;;5069115;28;20036;-66
2023/01/26 04:39:46;;;;;;;45.15;17.80;;;0.40;99.90;;;;;;5067211;28;20465;-66
2023/01/26 04:42:11;;;;;;;38.85;16.20;;;0.40;99.90;;;;;;5068535;28;20052;-64
2023/01/26 04:44:37;;;;;;;43.08;17.17;;;0.50;99.90;;;;;;5067224;28;20047;-63
2023/01/26 04:47:03;;;;;;;41.42;17.55;;;0.50;99.90;;;;;;5068350;28;20041;-65
2023/01/26 04:49:28;;;;;;;45.08;17.48;;;0.50;99.90;;;;;;5067587;28;20052;-64
2023/01/26 04:51:54;;;;;;;39.88;16.10;;;0.50;99.90;;;;;;5066386;28;20040;-65
2023/01/26 04:54:20;;;;;;;40.78;17.00;;;0.50;99.90;;;;;;5068685;28;20051;-65
2023/01/26 04:56:45;;;;;;;42.40;16.88;;;0.50;99.90;;;;;;5068708;28;20152;-64
2023/01/26 04:59:11;;;;;;;39.13;16.40;;;0.60;99.90;;;;;;5068515;28;20040;-66
2023/01/26 05:01:37;;;;;;;38.78;17.27;;;0.60;99.90;;;;;;5067652;28;20040;-65
2023/01/26 05:04:03;;;;;;;38.08;16.02;;;0.50;99.90;;;;;;5066496;28;20502;-65
2023/01/26 05:06:30;;;;;;;45.38;19.10;;;0.50;99.90;;;;;;5067874;28;20460;-67
2023/01/26 05:08:56;;;;;;;47.25;17.98;;;0.60;99.90;;;;;;5068057;28;20502;-65
2023/01/26 05:11:22;;;;;;;41.08;16.58;;;0.60;99.90;;;;;;5050638;28;20067;-66
2023/01/26 05:13:47;;;;;;;42.60;17.48;;;0.60;99.90;;;;;;5067706;28;20451;-64
2023/01/26 05:16:14;;;;;;;46.28;17.35;;;0.60;99.90;;;;;;5065884;28;20048;-62
2023/01/26 05:18:40;;;;;;;42.45;17.55;;;0.60;99.90;;;;;;5066777;28;20082;-65
2023/01/26 05:21:06;;;;;;;39.40;17.30;;;0.60;99.90;;;;;;5046171;28;20114;-63
2023/01/26 05:23:32;;;;;;;40.42;17.17;;;0.60;99.90;;;;;;5066649;28;20036;-65
2023/01/26 05:25:57;;;;;;;48.40;17.42;;;0.70;99.90;;;;;;5066271;28;20049;-65
2023/01/26 05:28:23;;;;;;;40.70;16.17;;;0.70;99.90;;;;;;5067028;28;20170;-65
2023/01/26 05:30:49;;;;;;;49.08;17.95;;;0.70;99.90;;;;;;5066134;28;20048;-66
2023/01/26 05:33:15;;;;;;;37.42;16.33;;;0.70;99.90;;;;;;5050275;28;20049;-64
2023/01/26 05:35:41;;;;;;;38.70;16.67;;;0.80;99.90;;;;;;5065293;28;20541;-66
2023/01/26 05:38:07;;;;;;;45.63;16.92;;;0.70;99.90;;;;;;5062705;28;20033;-65
2023/01/26 05:40:33;;;;;;;41.22;17.27;;;0.80;99.90;;;;;;5065461;28;20037;-62
2023/01/26 05:42:58;;;;;;;47.47;19.27;;;0.80;99.90;;;;;;5067225;28;20413;-67
2023/01/26 05:45:24;;;;;;;40.97;17.27;;;0.80;99.90;;;;;;5063064;28;20051;-65
2023/01/26 05:47:50;;;;;;;47.60;18.42;;;0.80;99.90;;;;;;5064932;28;20134;-65
2023/01/26 05:50:16;;;;;;;44.92;18.88;;;0.80;99.90;;;;;;5067120;28;20854;-64
2023/01/26 05:52:45;;;;;;;48.72;19.38;;;0.90;99.90;;;;;;5066848;28;20037;-65
2023/01/26 05:55:12;;;;;;;42.15;18.75;;;0.80;99.90;;;;;;5067720;28;20039;-69
2023/01/26 05:57:38;;;;;;;45.88;19.95;;;0.80;99.90;;;;;;5067708;28;20128;-63
2023/01/26 06:00:05;;;;;;;39.88;18.02;;;0.90;99.90;;;;;;5067982;28;20152;-64
2023/01/26 06:02:30;;;;;;;55.20;19.80;;;0.90;99.90;;;;;;5067416;28;20119;-63
2023/01/26 06:04:56;;;;;;;46.95;19.55;;;0.90;99.90;;;;;;5066418;28;20120;-64
2023/01/26 06:07:22;;;;;;;44.00;18.70;;;0.90;99.90;;;;;;5065218;28;20055;-64
2023/01/26 06:09:47;;;;;;;46.72;19.27;;;0.90;99.90;;;;;;5066359;28;20051;-65
2023/01/26 06:12:15;;;;;;;46.63;20.58;;;1.00;99.90;;;;;;5065850;28;20040;-68
2023/01/26 06:14:41;;;;;;;47.28;20.25;;;1.00;99.90;;;;;;5066849;28;20052;-67
2023/01/26 06:17:07;;;;;;;57.88;20.45;;;1.00;99.90;;;;;;5066681;28;20499;-61
2023/01/26 06:19:34;;;;;;;53.30;21.10;;;1.00;99.90;;;;;;5068929;28;20119;-66
2023/01/26 06:22:00;;;;;;;44.67;19.60;;;1.00;99.90;;;;;;5069698;28;20045;-65
2023/01/26 06:24:26;;;;;;;49.78;20.27;;;1.00;99.90;;;;;;5068205;28;20506;-66
2023/01/26 06:26:52;;;;;;;45.72;19.92;;;1.00;99.90;;;;;;5067680;28;20052;-65
2023/01/26 06:29:18;;;;;;;54.33;20.88;;;1.00;99.90;;;;;;5070179;28;20383;-65
2023/01/26 06:31:43;;;;;;;55.08;20.92;;;0.90;99.90;;;;;;5068448;28;20550;-66
2023/01/26 06:34:09;;;;;;;47.88;19.73;;;0.90;99.90;;;;;;5072352;28;20036;-65
2023/01/26 06:36:36;;;;;;;55.65;21.52;;;1.00;99.90;;;;;;5071877;28;20115;-64
2023/01/26 06:39:02;;;;;;;52.20;21.75;;;1.00;99.90;;;;;;5068677;28;20067;-68
2023/01/26 06:41:27;;;;;;;54.13;21.67;;;1.00;99.90;;;;;;5070901;28;20047;-66
2023/01/26 06:43:53;;;;;;;61.58;21.40;;;1.10;99.90;;;;;;5069695;28;20044;-65
2023/01/26 06:46:19;;;;;;;52.55;20.33;;;1.10;99.90;;;;;;5070711;28;20040;-65
2023/01/26 06:48:45;;;;;;;48.17;20.92;;;1.20;99.90;;;;;;5068182;28;20040;-65
2023/01/26 06:51:18;;;;;;;48.95;19.20;;;1.20;99.90;;;;;;5070441;28;20048;-63
2023/01/26 06:53:50;;;;;;;48.72;20.83;;;1.30;99.90;;;;;;5070109;28;20521;-63
2023/01/26 06:56:15;;;;;;;49.72;20.90;;;1.30;99.90;;;;;;5070705;28;20503;-65
2023/01/26 06:58:41;;;;;;;46.42;20.27;;;1.30;99.90;;;;;;5068296;28;20075;-65
2023/01/26 07:01:15;;;;;;;51.97;20.60;;;1.30;99.90;;;;;;5070473;28;20979;-64
2023/01/26 07:03:40;;;;;;;53.25;20.75;;;1.20;99.90;;;;;;5068614;28;20044;-65
2023/01/26 07:06:10;;;;;;;46.45;19.52;;;1.20;99.90;;;;;;5053577;28;20052;-65
2023/01/26 07:08:35;;;;;;;49.88;20.17;;;1.20;99.90;;;;;;5068683;28;20434;-64
2023/01/26 07:11:01;;;;;;;49.83;20.15;;;1.30;99.90;;;;;;5053014;28;20089;-64
2023/01/26 07:13:26;;;;;;;49.55;20.20;;;1.30;99.90;;;;;;5068955;28;20036;-64
2023/01/26 07:16:06;;;;;;;55.55;20.75;;;1.30;99.90;;;;;;5070014;28;20051;-65
2023/01/26 07:18:32;;;;;;;50.58;21.73;;;1.30;99.90;;;;;;5069483;28;20123;-64
2023/01/26 07:21:02;;;;;;;58.05;23.38;;;1.30;99.90;;;;;;5070237;28;20506;-66
2023/01/26 07:23:28;;;;;;;56.70;21.77;;;1.20;99.90;;;;;;5067791;28;20086;-65
2023/01/26 07:25:54;;;;;;;63.30;22.25;;;1.20;99.90;;;;;;5069783;28;20052;-63
2023/01/26 07:28:20;;;;;;;63.92;23.17;;;1.20;99.90;;;;;;5068430;28;20044;-66
2023/01/26 07:30:45;;;;;;;69.00;23.77;;;1.20;99.90;;;;;;5052975;28;20165;-64
2023/01/26 07:33:11;;;;;;;72.03;23.48;;;1.20;99.90;;;;;;5069915;28;20118;-66
2023/01/26 07:35:37;;;;;;;54.40;22.75;;;1.20;99.90;;;;;;5070369;28;20048;-65
2023/01/26 07:38:03;;;;;;;55.58;22.50;;;1.10;99.90;;;;;;5067261;28;20044;-64
2023/01/26 07:40:29;;;;;;;60.28;22.83;;;1.10;99.90;;;;;;5069181;28;20174;-67
2023/01/26 07:42:55;;;;;;;70.25;23.50;;;1.10;99.90;;;;;;5068491;28;20119;-66
2023/01/26 07:45:21;;;;;;;59.35;23.42;;;1.10;99.90;;;;;;5068525;28;20048;-65
2023/01/26 07:47:46;;;;;;;74.25;23.02;;;1.20;99.90;;;;;;5067957;28;20387;-67
2023/01/26 07:50:13;;;;;;;71.97;24.45;;;1.10;99.90;;;;;;5069558;28;20040;-64
2023/01/26 07:52:39;;;;;;;66.50;23.45;;;1.20;99.90;;;;;;5069424;28;20048;-66
2023/01/26 07:55:05;;;;;;;63.58;23.35;;;1.20;99.90;;;;;;5066383;28;20537;-66
2023/01/26 07:57:32;;;;;;;64.95;23.17;;;1.30;99.90;;;;;;5069687;28;20040;-64
2023/01/26 07:59:58;;;;;;;55.47;21.00;;;1.30;99.90;;;;;;5067253;28;20044;-65
2023/01/26 08:02:24;;;;;;;58.47;22.13;;;1.30;99.90;;;;;;5069701;28;20418;-65
2023/01/26 08:04:49;;;;;;;52.63;20.92;;;1.30;99.90;;;;;;5069265;28;20056;-66
2023/01/26 08:07:15;;;;;;;61.35;21.88;;;1.40;99.90;;;;;;5069344;28;20036;-65
2023/01/26 08:09:40;;;;;;;77.03;23.00;;;1.40;99.90;;;;;;5068832;28;20044;-63
2023/01/26 08:12:06;;;;;;;58.78;21.25;;;1.50;99.90;;;;;;5068788;28;20040;-64
2023/01/26 08:14:32;;;;;;;60.30;22.13;;;1.50;99.90;;;;;;5067012;28;20059;-64
2023/01/26 08:16:58;;;;;;;55.78;21.95;;;1.50;99.90;;;;;;5066506;28;20052;-66
2023/01/26 08:19:24;;;;;;;64.97;22.88;;;1.50;99.90;;;;;;5069076;28;20043;-66
2023/01/26 08:21:49;;;;;;;54.67;20.73;;;1.50;99.90;;;;;;5069073;28;20078;-65
2023/01/26 08:24:15;;;;;;;54.05;21.85;;;1.50;99.90;;;;;;5069591;28;20522;-63
2023/01/26 08:26:40;;;;;;;58.35;22.83;;;1.50;99.90;;;;;;5067029;28;20084;-66
2023/01/26 08:29:06;;;;;;;54.63;22.08;;;1.50;99.90;;;;;;5067416;28;20072;-66
2023/01/26 08:31:32;;;;;;;58.65;22.40;;;1.50;99.90;;;;;;5050389;28;20173;-65
2023/01/26 08:33:58;;;;;;;53.38;21.95;;;1.50;99.90;;;;;;5068698;28;20056;-66
2023/01/26 08:36:24;;;;;;;87.32;21.85;;;1.50;99.90;;;;;;5070243;28;20032;-67
2023/01/26 08:38:51;;;;;;;55.20;21.52;;;1.50;99.90;;;;;;5067736;28;20148;-65
2023/01/26 08:41:17;;;;;;;56.80;21.98;;;1.40;99.90;;;;;;5064632;28;20051;-65
2023/01/26 08:43:42;;;;;;;44.63;20.23;;;1.50;99.90;;;;;;5068063;28;20421;-65
2023/01/26 08:46:08;;;;;;;51.08;20.13;;;1.50;99.90;;;;;;5066824;28;20498;-65
2023/01/26 08:48:34;;;;;;;44.97;19.15;;;1.50;99.90;;;;;;5051053;28;20093;-66
2023/01/26 08:51:02;;;;;;;38.10;18.50;;;1.50;99.90;;;;;;5068427;28;20115;-65
2023/01/26 08:53:32;;;;;;;35.05;17.25;;;1.50;99.90;;;;;;5068188;28;20056;-66
2023/01/26 08:56:06;;;;;;;38.75;18.52;;;1.50;99.90;;;;;;5068438;28;20170;-65
2023/01/26 08:58:32;;;;;;;33.90;16.10;;;1.60;99.90;;;;;;5065859;28;20043;-65
2023/01/26 09:00:58;;;;;;;35.70;16.02;;;1.70;99.90;;;;;;5068174;28;20036;-66
2023/01/26 09:03:24;;;;;;;51.83;15.50;;;1.80;99.90;;;;;;5067921;28;20033;-66
2023/01/26 09:05:50;;;;;;;33.70;15.35;;;1.80;99.90;;;;;;5068523;28;20147;-64
2023/01/26 09:08:15;;;;;;;29.13;14.00;;;1.90;99.90;;;;;;5068121;28;20040;-65
2023/01/26 09:10:43;;;;;;;29.60;15.57;;;1.90;99.90;;;;;;5067432;28;20047;-66
2023/01/26 09:13:09;;;;;;;29.95;13.93;;;2.00;99.90;;;;;;5067599;28;20086;-65
2023/01/26 09:15:36;;;;;;;28.73;15.10;;;2.10;99.90;;;;;;5066051;28;20442;-64
2023/01/26 09:18:02;;;;;;;30.60;14.85;;;2.10;99.90;;;;;;5049692;28;20491;-67
2023/01/26 09:20:28;;;;;;;33.30;14.45;;;2.20;99.90;;;;;;5067709;28;20044;-66
2023/01/26 09:22:53;;;;;;;30.52;12.70;;;2.30;99.90;;;;;;5064542;28;20041;-68
2023/01/26 09:25:19;;;;;;;32.67;12.65;;;2.50;99.90;;;;;;5066991;28;20495;-66
2023/01/26 09:27:45;;;;;;;29.38;13.88;;;2.60;99.90;;;;;;5065678;28;20064;-64
2023/01/26 09:30:10;;;;;;;32.85;12.88;;;2.70;99.90;;;;;;5065744;28;20047;-66
2023/01/26 09:32:36;;;;;;;33.35;11.55;;;2.80;99.90;;;;;;5067750;28;20080;-65
2023/01/26 09:35:02;;;;;;;34.63;11.35;;;2.90;99.90;;;;;;5062194;28;20075;-64
2023/01/26 09:37:28;;;;;;;33.25;10.50;;;3.10;99.90;;;;;;5067060;28;20032;-66
2023/01/26 09:39:53;;;;;;;33.25;12.15;;;3.30;99.90;;;;;;5068360;28;20051;-65
2023/01/26 09:42:25;;;;;;;34.80;10.60;;;3.50;99.90;;;;;;5066301;28;20037;-66
2023/01/26 09:45:10;;;;;;;38.00;9.65;;;3.70;99.90;;;;;;5060798;28;20093;-65
2023/01/26 09:48:02;;;;;;;29.52;9.95;;;3.90;99.90;;;;;;5046543;28;20558;-67
2023/01/26 09:50:49;;;;;;;38.15;9.32;;;4.10;99.90;;;;;;5039659;28;20072;-65
2023/01/26 09:53:25;;;;;;;36.50;9.40;;;4.30;99.90;;;;;;5033363;28;20492;-64
2023/01/26 09:55:52;;;;;;;35.17;9.40;;;4.50;99.90;;;;;;5014047;28;20047;-64
2023/01/26 09:58:31;;;;;;;36.38;9.60;;;4.70;99.90;;;;;;5016088;28;20053;-63
2023/01/26 10:01:01;;;;;;;32.47;8.57;;;4.80;99.90;;;;;;5033567;28;20115;-65
2023/01/26 10:03:45;;;;;;;31.88;7.75;;;5.00;99.90;;;;;;5014666;28;20086;-64
2023/01/26 10:06:27;;;;;;;30.60;7.45;;;5.20;99.90;;;;;;5047885;28;20087;-64
2023/01/26 10:09:04;;;;;;;25.90;7.25;;;5.40;99.90;;;;;;5032585;28;20037;-64
2023/01/26 10:11:38;;;;;;;34.08;7.35;;;5.60;99.90;;;;;;5032590;28;20053;-65
2023/01/26 10:14:14;;;;;;;31.15;8.00;;;5.80;99.90;;;;;;5034219;28;20132;-63
2023/01/26 10:16:45;;;;;;;29.70;6.47;;;6.00;99.90;;;;;;5033317;28;20060;-64
2023/01/26 10:19:30;;;;;;;28.08;7.45;;;6.20;99.90;;;;;;5034506;28;20047;-64
2023/01/26 10:22:03;;;;;;;27.17;6.68;;;6.40;99.90;;;;;;5030883;28;20083;-65
2023/01/26 10:24:31;;;;;;;24.45;6.07;;;6.40;99.90;;;;;;5045454;28;20060;-65
2023/01/26 10:26:58;;;;;;;26.08;5.50;;;6.50;99.90;;;;;;5071260;28;20088;-64
2023/01/26 10:29:24;;;;;;;32.88;5.63;;;6.70;99.90;;;;;;5071254;28;20123;-66
2023/01/26 10:31:49;;;;;;;26.08;6.15;;;6.90;99.90;;;;;;5069120;28;20115;-65
2023/01/26 10:34:21;;;;;;;28.90;5.80;;;7.10;99.90;;;;;;5068766;28;20052;-64
2023/01/26 10:36:47;;;;;;;29.55;6.57;;;7.20;99.90;;;;;;5070213;28;20552;-65
2023/01/26 10:39:15;;;;;;;28.20;5.75;;;7.50;99.90;;;;;;5069257;28;20067;-64
2023/01/26 10:42:03;;;;;;;20.23;4.72;;;7.70;99.90;;;;;;5070299;28;20052;-65
2023/01/26 10:44:34;;;;;;;25.63;4.78;;;7.90;99.90;;;;;;5071349;28;20044;-66
2023/01/26 10:47:14;;;;;;;19.17;4.65;;;8.00;99.90;;;;;;5071053;28;20055;-64
2023/01/26 10:49:40;;;;;;;25.02;4.45;;;8.20;99.90;;;;;;5069798;28;20040;-65
2023/01/26 10:52:07;;;;;;;23.38;4.60;;;8.30;99.90;;;;;;5070906;28;20410;-64
2023/01/26 10:54:34;;;;;;;20.30;4.55;;;8.50;99.90;;;;;;5054527;28;20060;-65
2023/01/26 10:57:06;;;;;;;23.85;3.58;;;8.50;99.90;;;;;;5072025;28;20044;-64
2023/01/26 10:59:39;;;;;;;17.20;3.53;;;8.60;99.90;;;;;;5070824;28;20479;-65
2023/01/26 11:02:11;;;;;;;19.33;3.60;;;8.70;99.90;;;;;;5086313;28;20637;-65
2023/01/26 11:04:38;;;;;;;21.42;3.10;;;8.80;99.90;;;;;;5070460;28;20048;-64
2023/01/26 11:07:21;;;;;;;17.42;3.28;;;8.90;99.90;;;;;;5070704;28;20047;-64
2023/01/26 11:09:48;;;;;;;19.73;3.22;;;9.00;99.90;;;;;;5071044;28;20040;-64
2023/01/26 11:12:18;;;;;;;16.85;3.00;;;9.10;99.90;;;;;;5070521;28;20129;-63
2023/01/26 11:15:02;;;;;;;21.23;4.22;;;9.10;99.90;;;;;;5070550;28;20070;-65
2023/01/26 11:17:46;;;;;;;22.52;4.30;;;9.00;99.90;;;;;;5069695;28;20039;-64
2023/01/26 11:20:41;;;;;;;16.98;3.08;;;9.00;99.90;;;;;;5070518;28;20172;-65
2023/01/26 11:23:32;;;;;;;22.95;2.97;;;8.90;99.90;;;;;;5070096;28;20479;-64
2023/01/26 11:26:09;;;;;;;24.40;4.43;;;8.90;99.90;;;;;;5070025;28;20056;-67
2023/01/26 11:28:56;;;;;;;18.27;3.47;;;8.90;99.90;;;;;;5070593;28;20142;-65
2023/01/26 11:31:51;;;;;;;21.73;2.78;;;9.10;99.90;;;;;;5070176;28;20089;-65
2023/01/26 11:34:31;;;;;;;21.17;2.58;;;9.20;99.90;;;;;;5069243;28;20044;-65
2023/01/26 11:36:57;;;;;;;18.48;3.33;;;9.30;99.90;;;;;;5070540;28;20039;-64
2023/01/26 11:39:29;;;;;;;21.02;3.55;;;9.30;99.90;;;;;;5069910;28;20040;-64
2023/01/26 11:42:17;;;;;;;16.05;3.05;;;9.30;99.90;;;;;;5070523;28;20487;-65
2023/01/26 11:45:20;;;;;;;17.30;3.05;;;9.00;99.90;;;;;;5069020;28;20117;-66
2023/01/26 11:47:55;;;;;;;16.35;2.50;;;9.20;99.90;;;;;;5012790;28;20433;-65
2023/01/26 11:50:39;;;;;;;18.42;3.25;;;9.20;99.90;;;;;;5012598;28;20451;-66
2023/01/26 11:53:16;;;;;;;18.45;2.30;;;9.20;99.90;;;;;;5028746;28;20060;-65
2023/01/26 11:56:00;;;;;;;18.27;3.25;;;9.40;99.90;;;;;;5012186;28;20084;-66
2023/01/26 11:58:52;;;;;;;20.23;3.40;;;9.90;99.90;;;;;;5012444;28;20046;-65
2023/01/26 12:01:39;;;;;;;16.77;2.30;;;10.30;99.90;;;;;;5028267;28;20048;-65
2023/01/26 12:04:05;;;;;;;25.15;2.42;;;10.50;99.90;;;;;;5011882;28;20107;-64
2023/01/26 12:06:43;;;;;;;20.13;3.63;;;10.20;99.90;;;;;;5011248;28;20132;-66
2023/01/26 12:09:19;;;;;;;15.90;2.10;;;10.20;99.90;;;;;;5012224;28;20041;-66
2023/01/26 12:12:10;;;;;;;20.42;3.97;;;10.20;99.90;;;;;;5011735;28;20045;-66
2023/01/26 12:14:45;;;;;;;17.75;4.03;;;9.80;99.90;;;;;;5011459;28;20054;-67
2023/01/26 12:17:28;;;;;;;16.50;2.30;;;10.50;99.90;;;;;;5028328;28;20107;-65
2023/01/26 12:20:14;;;;;;;15.10;2.03;;;10.30;99.90;;;;;;5028480;28;20091;-65
2023/01/26 12:22:52;;;;;;;13.38;2.08;;;10.10;99.90;;;;;;5010590;28;20045;-65
2023/01/26 12:25:34;;;;;;;13.52;2.58;;;10.00;99.90;;;;;;5050119;28;20045;-66
2023/01/26 12:28:25;;;;;;;18.17;3.08;;;10.90;99.90;;;;;;5069072;28;20075;-66
2023/01/26 12:31:17;;;;;;;14.10;2.08;;;11.30;99.90;;;;;;5068802;28;20040;-66
2023/01/26 12:33:44;;;;;;;10.95;2.22;;;11.20;99.90;;;;;;5027621;28;20083;-64
2023/01/26 12:36:46;;;;;;;11.52;2.17;;;11.70;99.90;;;;;;5009575;28;20119;-65
2023/01/26 12:39:22;;;;;;;12.43;2.15;;;12.80;99.90;;;;;;5010363;28;20132;-65
2023/01/26 12:42:13;;;;;;;13.48;2.13;;;13.80;99.90;;;;;;5011141;28;20128;-65
2023/01/26 12:44:40;;;;;;;15.90;2.15;;;13.80;99.90;;;;;;5011193;28;20061;-63
2023/01/26 12:47:09;;;;;;;15.48;2.97;;;14.10;99.90;;;;;;5010297;28;20049;-66
2023/01/26 12:49:39;;;;;;;10.82;1.98;;;14.40;99.90;;;;;;5010534;28;20041;-66
2023/01/26 12:52:42;;;;;;;10.75;1.77;;;14.30;99.90;;;;;;5027685;28;20084;-64
2023/01/26 12:55:19;;;;;;;8.77;1.92;;;13.30;99.90;;;;;;4930150;29;20057;-64
2023/01/26 12:57:48;;;;;;;14.63;2.60;;;12.20;99.90;;;;;;4930585;29;20062;-65
2023/01/26 13:00:34;;;;;;;9.82;2.05;;;11.30;99.90;;;;;;4930160;29;20388;-65
2023/01/26 13:03:12;;;;;;;9.90;1.70;;;10.60;99.90;;;;;;4930213;29;20047;-65
2023/01/26 13:05:54;;;;;;;10.85;1.63;;;10.20;99.90;;;;;;4930586;29;20072;-65
2023/01/26 13:08:29;;;;;;;10.25;1.70;;;9.80;99.90;;;;;;4930569;29;20122;-62
2023/01/26 13:10:55;;;;;;;8.38;1.40;;;9.60;99.90;;;;;;4962603;28;20047;-66
2023/01/26 13:13:53;;;;;;;9.68;1.45;;;9.40;99.90;;;;;;4972044;28;20057;-65
2023/01/26 13:16:19;;;;;;;8.48;1.30;;;9.10;99.90;;;;;;4972152;28;20417;-64
2023/01/26 13:18:51;;;;;;;10.95;1.83;;;8.90;99.90;;;;;;4972045;28;20062;-65
2023/01/26 13:21:38;;;;;;;11.25;1.52;;;8.70;99.90;;;;;;4971113;28;20083;-64
2023/01/26 13:24:16;;;;;;;11.75;1.40;;;8.60;99.90;;;;;;4972035;28;20046;-63
2023/01/26 13:27:26;;;;;;;9.50;2.22;;;8.60;99.90;;;;;;4988107;28;20089;-66
2023/01/26 13:29:54;;;;;;;11.15;1.60;;;8.50;99.90;;;;;;4971949;28;20517;-64
2023/01/26 13:32:19;;;;;;;13.38;1.50;;;8.40;99.90;;;;;;5033064;28;20044;-65
2023/01/26 13:35:11;;;;;;;15.38;1.60;;;8.40;99.90;;;;;;5067856;28;20510;-65
2023/01/26 13:37:58;;;;;;;10.03;1.13;;;8.50;99.90;;;;;;5068327;28;20481;-65